sensor_id;sensor_type;location;lat;lon;timestamp;P1;durP1;ratioP1;P2;durP2;ratioP2
31450;SDS011;18070;52.474;13.304;2023-11-19T00:02:08;16.08;;;10.65;;
31450;SDS011;18070;52.474;13.304;2023-11-19T00:04:37;18.83;;;10.85;;
31450;SDS011;18070;52.474;13.304;2023-11-19T00:07:04;16.35;;;10.23;;
31450;SDS011;18070;52.474;13.304;2023-11-19T00:09:33;16.05;;;10.48;;
31450;SDS011;18070;52.474;13.304;2023-11-19T00:11:59;14.48;;;10.43;;
31450;SDS011;18070;52.474;13.304;2023-11-19T00:14:25;14.05;;;10.00;;
31450;SDS011;18070;52.474;13.304;2023-11-19T00:16:51;17.02;;;9.65;;
31450;SDS011;18070;52.474;13.304;2023-11-19T00:19:18;16.15;;;8.98;;
31450;SDS011;18070;52.474;13.304;2023-11-19T00:21:44;15.15;;;9.85;;
31450;SDS011;18070;52.474;13.304;2023-11-19T00:24:11;14.63;;;9.73;;
31450;SDS011;18070;52.474;13.304;2023-11-19T00:26:37;13.82;;;9.50;;
31450;SDS011;18070;52.474;13.304;2023-11-19T00:29:03;13.98;;;10.10;;
31450;SDS011;18070;52.474;13.304;2023-11-19T00:31:29;16.63;;;9.85;;
31450;SDS011;18070;52.474;13.304;2023-11-19T00:33:55;16.25;;;10.05;;
31450;SDS011;18070;52.474;13.304;2023-11-19T00:36:20;15.68;;;9.68;;
31450;SDS011;18070;52.474;13.304;2023-11-19T00:38:48;16.45;;;10.05;;
31450;SDS011;18070;52.474;13.304;2023-11-19T00:41:14;15.63;;;10.27;;
31450;SDS011;18070;52.474;13.304;2023-11-19T00:43:41;18.45;;;9.77;;
31450;SDS011;18070;52.474;13.304;2023-11-19T00:46:07;13.15;;;9.13;;
31450;SDS011;18070;52.474;13.304;2023-11-19T00:48:33;15.68;;;10.10;;
31450;SDS011;18070;52.474;13.304;2023-11-19T00:50:58;12.77;;;9.15;;
31450;SDS011;18070;52.474;13.304;2023-11-19T00:53:24;13.73;;;9.32;;
31450;SDS011;18070;52.474;13.304;2023-11-19T00:55:50;12.40;;;9.07;;
31450;SDS011;18070;52.474;13.304;2023-11-19T00:58:15;14.77;;;9.32;;
31450;SDS011;18070;52.474;13.304;2023-11-19T01:00:43;11.98;;;8.30;;
31450;SDS011;18070;52.474;13.304;2023-11-19T01:03:09;13.10;;;8.75;;
31450;SDS011;18070;52.474;13.304;2023-11-19T01:05:36;12.18;;;8.75;;
31450;SDS011;18070;52.474;13.304;2023-11-19T01:08:05;12.18;;;8.85;;
31450;SDS011;18070;52.474;13.304;2023-11-19T01:10:31;12.90;;;8.20;;
31450;SDS011;18070;52.474;13.304;2023-11-19T01:12:57;14.63;;;8.13;;
31450;SDS011;18070;52.474;13.304;2023-11-19T01:15:22;11.32;;;8.15;;
31450;SDS011;18070;52.474;13.304;2023-11-19T01:17:48;12.40;;;8.18;;
31450;SDS011;18070;52.474;13.304;2023-11-19T01:20:14;10.73;;;7.90;;
31450;SDS011;18070;52.474;13.304;2023-11-19T01:22:40;12.10;;;8.27;;
31450;SDS011;18070;52.474;13.304;2023-11-19T01:25:06;15.23;;;8.82;;
31450;SDS011;18070;52.474;13.304;2023-11-19T01:27:32;12.85;;;8.73;;
31450;SDS011;18070;52.474;13.304;2023-11-19T01:29:59;11.43;;;8.65;;
31450;SDS011;18070;52.474;13.304;2023-11-19T01:32:30;14.27;;;8.70;;
31450;SDS011;18070;52.474;13.304;2023-11-19T01:34:56;13.20;;;9.23;;
31450;SDS011;18070;52.474;13.304;2023-11-19T01:37:22;13.05;;;8.75;;
31450;SDS011;18070;52.474;13.304;2023-11-19T01:39:47;16.77;;;8.50;;
31450;SDS011;18070;52.474;13.304;2023-11-19T01:42:13;14.23;;;8.95;;
31450;SDS011;18070;52.474;13.304;2023-11-19T01:44:40;15.15;;;8.75;;
31450;SDS011;18070;52.474;13.304;2023-11-19T01:47:06;15.05;;;8.75;;
31450;SDS011;18070;52.474;13.304;2023-11-19T01:49:32;13.38;;;9.00;;
31450;SDS011;18070;52.474;13.304;2023-11-19T01:51:58;12.30;;;8.18;;
31450;SDS011;18070;52.474;13.304;2023-11-19T01:54:24;13.25;;;8.45;;
31450;SDS011;18070;52.474;13.304;2023-11-19T01:56:50;11.65;;;8.23;;
31450;SDS011;18070;52.474;13.304;2023-11-19T01:59:18;10.88;;;8.25;;
31450;SDS011;18070;52.474;13.304;2023-11-19T02:01:51;12.50;;;8.40;;
31450;SDS011;18070;52.474;13.304;2023-11-19T02:04:17;10.55;;;7.82;;
31450;SDS011;18070;52.474;13.304;2023-11-19T02:06:43;13.50;;;8.25;;
31450;SDS011;18070;52.474;13.304;2023-11-19T02:09:12;11.60;;;8.27;;
31450;SDS011;18070;52.474;13.304;2023-11-19T02:11:41;14.05;;;9.63;;
31450;SDS011;18070;52.474;13.304;2023-11-19T02:14:06;11.95;;;7.80;;
31450;SDS011;18070;52.474;13.304;2023-11-19T02:16:32;12.50;;;8.23;;
31450;SDS011;18070;52.474;13.304;2023-11-19T02:18:58;8.95;;;7.30;;
31450;SDS011;18070;52.474;13.304;2023-11-19T02:21:23;13.27;;;7.65;;
31450;SDS011;18070;52.474;13.304;2023-11-19T02:23:49;15.18;;;7.93;;
31450;SDS011;18070;52.474;13.304;2023-11-19T02:26:27;10.55;;;8.20;;
31450;SDS011;18070;52.474;13.304;2023-11-19T02:29:01;13.27;;;8.35;;
31450;SDS011;18070;52.474;13.304;2023-11-19T02:31:27;12.70;;;7.40;;
31450;SDS011;18070;52.474;13.304;2023-11-19T02:33:53;8.52;;;7.18;;
31450;SDS011;18070;52.474;13.304;2023-11-19T02:36:20;11.88;;;7.65;;
31450;SDS011;18070;52.474;13.304;2023-11-19T02:38:46;9.70;;;7.25;;
31450;SDS011;18070;52.474;13.304;2023-11-19T02:41:13;11.52;;;7.78;;
31450;SDS011;18070;52.474;13.304;2023-11-19T02:43:39;9.00;;;6.63;;
31450;SDS011;18070;52.474;13.304;2023-11-19T02:46:05;9.57;;;6.85;;
31450;SDS011;18070;52.474;13.304;2023-11-19T02:48:36;11.80;;;6.47;;
31450;SDS011;18070;52.474;13.304;2023-11-19T02:51:03;9.80;;;6.63;;
31450;SDS011;18070;52.474;13.304;2023-11-19T02:53:29;11.20;;;7.05;;
31450;SDS011;18070;52.474;13.304;2023-11-19T02:55:55;9.57;;;6.97;;
31450;SDS011;18070;52.474;13.304;2023-11-19T02:58:34;8.43;;;6.90;;
31450;SDS011;18070;52.474;13.304;2023-11-19T03:01:00;9.68;;;6.22;;
31450;SDS011;18070;52.474;13.304;2023-11-19T03:03:34;9.23;;;6.57;;
31450;SDS011;18070;52.474;13.304;2023-11-19T03:06:06;8.57;;;6.20;;
31450;SDS011;18070;52.474;13.304;2023-11-19T03:08:34;12.65;;;6.72;;
31450;SDS011;18070;52.474;13.304;2023-11-19T03:11:00;8.68;;;6.20;;
31450;SDS011;18070;52.474;13.304;2023-11-19T03:13:26;9.23;;;6.82;;
31450;SDS011;18070;52.474;13.304;2023-11-19T03:15:52;8.10;;;6.72;;
31450;SDS011;18070;52.474;13.304;2023-11-19T03:18:19;8.20;;;6.03;;
31450;SDS011;18070;52.474;13.304;2023-11-19T03:20:46;10.57;;;6.60;;
31450;SDS011;18070;52.474;13.304;2023-11-19T03:23:11;10.20;;;6.25;;
31450;SDS011;18070;52.474;13.304;2023-11-19T03:25:37;8.25;;;6.70;;
31450;SDS011;18070;52.474;13.304;2023-11-19T03:28:03;7.90;;;6.22;;
31450;SDS011;18070;52.474;13.304;2023-11-19T03:30:29;8.70;;;6.05;;
31450;SDS011;18070;52.474;13.304;2023-11-19T03:32:56;11.15;;;6.55;;
31450;SDS011;18070;52.474;13.304;2023-11-19T03:35:22;12.68;;;7.03;;
31450;SDS011;18070;52.474;13.304;2023-11-19T03:37:49;12.07;;;7.43;;
31450;SDS011;18070;52.474;13.304;2023-11-19T03:40:16;9.88;;;7.40;;
31450;SDS011;18070;52.474;13.304;2023-11-19T03:42:43;9.48;;;6.95;;
31450;SDS011;18070;52.474;13.304;2023-11-19T03:45:09;12.35;;;6.63;;
31450;SDS011;18070;52.474;13.304;2023-11-19T03:47:35;12.23;;;6.70;;
31450;SDS011;18070;52.474;13.304;2023-11-19T03:50:01;11.00;;;7.25;;
31450;SDS011;18070;52.474;13.304;2023-11-19T03:52:27;11.35;;;6.82;;
31450;SDS011;18070;52.474;13.304;2023-11-19T03:54:54;11.07;;;7.45;;
31450;SDS011;18070;52.474;13.304;2023-11-19T03:57:20;12.13;;;6.70;;
31450;SDS011;18070;52.474;13.304;2023-11-19T03:59:46;10.85;;;7.40;;
31450;SDS011;18070;52.474;13.304;2023-11-19T04:02:12;11.00;;;7.78;;
31450;SDS011;18070;52.474;13.304;2023-11-19T04:04:38;10.05;;;7.47;;
31450;SDS011;18070;52.474;13.304;2023-11-19T04:07:06;13.35;;;6.82;;
31450;SDS011;18070;52.474;13.304;2023-11-19T04:09:32;11.02;;;8.02;;
31450;SDS011;18070;52.474;13.304;2023-11-19T04:11:59;11.57;;;7.75;;
31450;SDS011;18070;52.474;13.304;2023-11-19T04:14:25;11.95;;;7.70;;
31450;SDS011;18070;52.474;13.304;2023-11-19T04:16:51;10.45;;;7.15;;
31450;SDS011;18070;52.474;13.304;2023-11-19T04:19:20;12.60;;;8.43;;
31450;SDS011;18070;52.474;13.304;2023-11-19T04:21:47;9.60;;;8.05;;
31450;SDS011;18070;52.474;13.304;2023-11-19T04:24:12;12.55;;;8.65;;
31450;SDS011;18070;52.474;13.304;2023-11-19T04:26:42;14.40;;;8.20;;
31450;SDS011;18070;52.474;13.304;2023-11-19T04:29:10;14.57;;;8.73;;
31450;SDS011;18070;52.474;13.304;2023-11-19T04:31:37;14.77;;;8.32;;
31450;SDS011;18070;52.474;13.304;2023-11-19T04:34:04;11.63;;;8.23;;
31450;SDS011;18070;52.474;13.304;2023-11-19T04:36:31;12.18;;;8.52;;
31450;SDS011;18070;52.474;13.304;2023-11-19T04:38:58;14.80;;;9.00;;
31450;SDS011;18070;52.474;13.304;2023-11-19T04:41:24;12.52;;;9.10;;
31450;SDS011;18070;52.474;13.304;2023-11-19T04:43:50;12.77;;;8.50;;
31450;SDS011;18070;52.474;13.304;2023-11-19T04:46:16;16.42;;;9.55;;
31450;SDS011;18070;52.474;13.304;2023-11-19T04:48:42;18.17;;;9.30;;
31450;SDS011;18070;52.474;13.304;2023-11-19T04:51:07;12.05;;;8.65;;
31450;SDS011;18070;52.474;13.304;2023-11-19T04:53:34;13.65;;;9.25;;
31450;SDS011;18070;52.474;13.304;2023-11-19T04:56:00;14.90;;;8.82;;
31450;SDS011;18070;52.474;13.304;2023-11-19T04:58:32;11.45;;;8.70;;
31450;SDS011;18070;52.474;13.304;2023-11-19T05:00:58;15.43;;;8.48;;
31450;SDS011;18070;52.474;13.304;2023-11-19T05:03:24;16.25;;;9.82;;
31450;SDS011;18070;52.474;13.304;2023-11-19T05:05:50;12.77;;;9.02;;
31450;SDS011;18070;52.474;13.304;2023-11-19T05:08:15;14.27;;;9.10;;
31450;SDS011;18070;52.474;13.304;2023-11-19T05:10:41;16.40;;;9.32;;
31450;SDS011;18070;52.474;13.304;2023-11-19T05:13:06;11.80;;;8.75;;
31450;SDS011;18070;52.474;13.304;2023-11-19T05:15:32;10.45;;;8.98;;
31450;SDS011;18070;52.474;13.304;2023-11-19T05:17:58;12.27;;;9.20;;
31450;SDS011;18070;52.474;13.304;2023-11-19T05:20:24;17.40;;;10.15;;
31450;SDS011;18070;52.474;13.304;2023-11-19T05:22:49;12.18;;;9.10;;
31450;SDS011;18070;52.474;13.304;2023-11-19T05:25:16;14.48;;;9.90;;
31450;SDS011;18070;52.474;13.304;2023-11-19T05:27:42;12.27;;;9.95;;
31450;SDS011;18070;52.474;13.304;2023-11-19T05:30:08;11.57;;;9.10;;
31450;SDS011;18070;52.474;13.304;2023-11-19T05:32:35;12.10;;;8.70;;
31450;SDS011;18070;52.474;13.304;2023-11-19T05:35:01;12.13;;;9.40;;
31450;SDS011;18070;52.474;13.304;2023-11-19T05:37:27;10.10;;;8.13;;
31450;SDS011;18070;52.474;13.304;2023-11-19T05:39:53;12.38;;;8.68;;
31450;SDS011;18070;52.474;13.304;2023-11-19T05:42:18;13.75;;;8.82;;
31450;SDS011;18070;52.474;13.304;2023-11-19T05:44:44;10.38;;;7.72;;
31450;SDS011;18070;52.474;13.304;2023-11-19T05:47:09;13.00;;;9.55;;
31450;SDS011;18070;52.474;13.304;2023-11-19T05:49:35;11.60;;;7.65;;
31450;SDS011;18070;52.474;13.304;2023-11-19T05:52:02;10.70;;;8.63;;
31450;SDS011;18070;52.474;13.304;2023-11-19T05:54:28;13.55;;;9.60;;
31450;SDS011;18070;52.474;13.304;2023-11-19T05:56:54;12.15;;;10.05;;
31450;SDS011;18070;52.474;13.304;2023-11-19T05:59:20;12.85;;;10.23;;
31450;SDS011;18070;52.474;13.304;2023-11-19T06:01:47;14.65;;;10.88;;
31450;SDS011;18070;52.474;13.304;2023-11-19T06:04:13;13.68;;;9.85;;
31450;SDS011;18070;52.474;13.304;2023-11-19T06:06:39;12.52;;;9.50;;
31450;SDS011;18070;52.474;13.304;2023-11-19T06:09:05;11.73;;;10.32;;
31450;SDS011;18070;52.474;13.304;2023-11-19T06:11:32;11.23;;;9.13;;
31450;SDS011;18070;52.474;13.304;2023-11-19T06:13:59;15.27;;;9.95;;
31450;SDS011;18070;52.474;13.304;2023-11-19T06:16:24;15.55;;;10.05;;
31450;SDS011;18070;52.474;13.304;2023-11-19T06:18:50;11.98;;;9.45;;
31450;SDS011;18070;52.474;13.304;2023-11-19T06:21:16;10.70;;;8.70;;
31450;SDS011;18070;52.474;13.304;2023-11-19T06:23:41;10.55;;;9.45;;
31450;SDS011;18070;52.474;13.304;2023-11-19T06:26:07;11.77;;;9.30;;
31450;SDS011;18070;52.474;13.304;2023-11-19T06:28:33;12.48;;;10.20;;
31450;SDS011;18070;52.474;13.304;2023-11-19T06:30:59;14.57;;;10.98;;
31450;SDS011;18070;52.474;13.304;2023-11-19T06:33:25;12.93;;;9.98;;
31450;SDS011;18070;52.474;13.304;2023-11-19T06:35:52;12.45;;;9.55;;
31450;SDS011;18070;52.474;13.304;2023-11-19T06:38:17;11.57;;;9.10;;
31450;SDS011;18070;52.474;13.304;2023-11-19T06:40:43;11.15;;;9.77;;
31450;SDS011;18070;52.474;13.304;2023-11-19T06:43:09;14.27;;;9.93;;
31450;SDS011;18070;52.474;13.304;2023-11-19T06:45:35;11.75;;;9.57;;
31450;SDS011;18070;52.474;13.304;2023-11-19T06:48:02;14.93;;;10.10;;
31450;SDS011;18070;52.474;13.304;2023-11-19T06:50:29;9.90;;;8.23;;
31450;SDS011;18070;52.474;13.304;2023-11-19T06:52:54;12.40;;;9.18;;
31450;SDS011;18070;52.474;13.304;2023-11-19T06:55:20;11.85;;;9.57;;
31450;SDS011;18070;52.474;13.304;2023-11-19T06:57:45;12.45;;;10.27;;
31450;SDS011;18070;52.474;13.304;2023-11-19T07:00:11;11.60;;;8.98;;
31450;SDS011;18070;52.474;13.304;2023-11-19T07:02:37;13.05;;;8.18;;
31450;SDS011;18070;52.474;13.304;2023-11-19T07:05:03;11.00;;;8.38;;
31450;SDS011;18070;52.474;13.304;2023-11-19T07:07:31;12.85;;;9.63;;
31450;SDS011;18070;52.474;13.304;2023-11-19T07:10:00;11.60;;;8.98;;
31450;SDS011;18070;52.474;13.304;2023-11-19T07:12:27;12.98;;;9.13;;
31450;SDS011;18070;52.474;13.304;2023-11-19T07:14:53;10.82;;;7.93;;
31450;SDS011;18070;52.474;13.304;2023-11-19T07:17:20;13.57;;;8.45;;
31450;SDS011;18070;52.474;13.304;2023-11-19T07:19:52;9.93;;;8.00;;
31450;SDS011;18070;52.474;13.304;2023-11-19T07:22:17;11.77;;;8.75;;
31450;SDS011;18070;52.474;13.304;2023-11-19T07:24:46;10.50;;;9.13;;
31450;SDS011;18070;52.474;13.304;2023-11-19T07:27:11;12.68;;;8.95;;
31450;SDS011;18070;52.474;13.304;2023-11-19T07:29:38;12.18;;;9.00;;
31450;SDS011;18070;52.474;13.304;2023-11-19T07:32:04;12.43;;;9.15;;
31450;SDS011;18070;52.474;13.304;2023-11-19T07:34:30;13.57;;;10.40;;
31450;SDS011;18070;52.474;13.304;2023-11-19T07:36:55;8.88;;;7.45;;
31450;SDS011;18070;52.474;13.304;2023-11-19T07:39:24;9.35;;;7.60;;
31450;SDS011;18070;52.474;13.304;2023-11-19T07:41:50;8.75;;;7.55;;
31450;SDS011;18070;52.474;13.304;2023-11-19T07:44:15;9.32;;;8.15;;
31450;SDS011;18070;52.474;13.304;2023-11-19T07:46:41;11.43;;;8.90;;
31450;SDS011;18070;52.474;13.304;2023-11-19T07:49:10;11.68;;;8.80;;
31450;SDS011;18070;52.474;13.304;2023-11-19T07:51:36;11.23;;;8.23;;
31450;SDS011;18070;52.474;13.304;2023-11-19T07:54:01;13.88;;;8.35;;
31450;SDS011;18070;52.474;13.304;2023-11-19T07:56:27;12.57;;;8.77;;
31450;SDS011;18070;52.474;13.304;2023-11-19T07:58:53;10.13;;;8.38;;
31450;SDS011;18070;52.474;13.304;2023-11-19T08:01:18;12.80;;;8.98;;
31450;SDS011;18070;52.474;13.304;2023-11-19T08:03:44;9.05;;;7.95;;
31450;SDS011;18070;52.474;13.304;2023-11-19T08:06:09;11.23;;;8.55;;
31450;SDS011;18070;52.474;13.304;2023-11-19T08:08:35;9.43;;;8.20;;
31450;SDS011;18070;52.474;13.304;2023-11-19T08:11:03;11.35;;;8.68;;
31450;SDS011;18070;52.474;13.304;2023-11-19T08:13:30;10.13;;;8.88;;
31450;SDS011;18070;52.474;13.304;2023-11-19T08:15:56;10.55;;;8.43;;
31450;SDS011;18070;52.474;13.304;2023-11-19T08:18:23;9.80;;;8.10;;
31450;SDS011;18070;52.474;13.304;2023-11-19T08:20:49;10.30;;;8.05;;
31450;SDS011;18070;52.474;13.304;2023-11-19T08:23:18;12.05;;;7.90;;
31450;SDS011;18070;52.474;13.304;2023-11-19T08:25:48;12.88;;;8.40;;
31450;SDS011;18070;52.474;13.304;2023-11-19T08:28:14;9.48;;;7.40;;
31450;SDS011;18070;52.474;13.304;2023-11-19T08:30:40;9.93;;;8.18;;
31450;SDS011;18070;52.474;13.304;2023-11-19T08:33:06;11.25;;;7.65;;
31450;SDS011;18070;52.474;13.304;2023-11-19T08:35:32;10.13;;;8.07;;
31450;SDS011;18070;52.474;13.304;2023-11-19T08:37:58;11.82;;;8.32;;
31450;SDS011;18070;52.474;13.304;2023-11-19T08:40:24;10.80;;;8.68;;
31450;SDS011;18070;52.474;13.304;2023-11-19T08:42:51;10.57;;;7.80;;
31450;SDS011;18070;52.474;13.304;2023-11-19T08:45:16;9.32;;;7.95;;
31450;SDS011;18070;52.474;13.304;2023-11-19T08:47:42;11.48;;;7.43;;
31450;SDS011;18070;52.474;13.304;2023-11-19T08:50:10;8.77;;;7.80;;
31450;SDS011;18070;52.474;13.304;2023-11-19T08:52:36;8.18;;;7.20;;
31450;SDS011;18070;52.474;13.304;2023-11-19T08:55:02;11.27;;;7.88;;
31450;SDS011;18070;52.474;13.304;2023-11-19T08:57:28;8.82;;;7.53;;
31450;SDS011;18070;52.474;13.304;2023-11-19T08:59:53;12.85;;;8.00;;
31450;SDS011;18070;52.474;13.304;2023-11-19T09:02:19;11.38;;;8.07;;
31450;SDS011;18070;52.474;13.304;2023-11-19T09:04:45;14.88;;;9.10;;
31450;SDS011;18070;52.474;13.304;2023-11-19T09:07:10;15.88;;;9.82;;
31450;SDS011;18070;52.474;13.304;2023-11-19T09:09:36;12.80;;;9.13;;
31450;SDS011;18070;52.474;13.304;2023-11-19T09:12:02;14.40;;;8.98;;
31450;SDS011;18070;52.474;13.304;2023-11-19T09:14:29;13.45;;;8.80;;
31450;SDS011;18070;52.474;13.304;2023-11-19T09:16:55;11.38;;;7.80;;
31450;SDS011;18070;52.474;13.304;2023-11-19T09:19:21;10.85;;;7.72;;
31450;SDS011;18070;52.474;13.304;2023-11-19T09:21:47;10.77;;;7.55;;
31450;SDS011;18070;52.474;13.304;2023-11-19T09:24:14;11.27;;;6.95;;
31450;SDS011;18070;52.474;13.304;2023-11-19T09:26:40;8.15;;;6.25;;
31450;SDS011;18070;52.474;13.304;2023-11-19T09:29:07;10.73;;;5.20;;
31450;SDS011;18070;52.474;13.304;2023-11-19T09:31:33;7.88;;;5.07;;
31450;SDS011;18070;52.474;13.304;2023-11-19T09:33:59;6.72;;;3.97;;
31450;SDS011;18070;52.474;13.304;2023-11-19T09:36:25;3.72;;;3.42;;
31450;SDS011;18070;52.474;13.304;2023-11-19T09:38:51;4.00;;;3.70;;
31450;SDS011;18070;52.474;13.304;2023-11-19T09:41:16;6.72;;;4.57;;
31450;SDS011;18070;52.474;13.304;2023-11-19T09:43:44;5.53;;;3.90;;
31450;SDS011;18070;52.474;13.304;2023-11-19T09:46:10;8.07;;;3.67;;
31450;SDS011;18070;52.474;13.304;2023-11-19T09:48:38;4.85;;;3.40;;
31450;SDS011;18070;52.474;13.304;2023-11-19T09:51:05;4.00;;;3.58;;
31450;SDS011;18070;52.474;13.304;2023-11-19T09:53:33;5.32;;;3.80;;
31450;SDS011;18070;52.474;13.304;2023-11-19T09:56:00;4.88;;;3.53;;
31450;SDS011;18070;52.474;13.304;2023-11-19T09:58:28;5.80;;;3.42;;
31450;SDS011;18070;52.474;13.304;2023-11-19T10:00:55;6.57;;;3.20;;
31450;SDS011;18070;52.474;13.304;2023-11-19T10:03:24;5.95;;;3.63;;
31450;SDS011;18070;52.474;13.304;2023-11-19T10:05:50;7.75;;;3.80;;
31450;SDS011;18070;52.474;13.304;2023-11-19T10:08:16;8.27;;;3.63;;
31450;SDS011;18070;52.474;13.304;2023-11-19T10:10:42;8.77;;;3.70;;
31450;SDS011;18070;52.474;13.304;2023-11-19T10:13:08;6.13;;;3.50;;
31450;SDS011;18070;52.474;13.304;2023-11-19T10:15:37;5.35;;;3.28;;
31450;SDS011;18070;52.474;13.304;2023-11-19T10:18:02;5.95;;;3.50;;
31450;SDS011;18070;52.474;13.304;2023-11-19T10:20:37;5.53;;;3.80;;
31450;SDS011;18070;52.474;13.304;2023-11-19T10:23:05;9.18;;;3.40;;
31450;SDS011;18070;52.474;13.304;2023-11-19T10:25:31;5.22;;;3.05;;
31450;SDS011;18070;52.474;13.304;2023-11-19T10:27:58;6.18;;;3.50;;
31450;SDS011;18070;52.474;13.304;2023-11-19T10:30:25;10.70;;;3.50;;
31450;SDS011;18070;52.474;13.304;2023-11-19T10:33:27;6.35;;;3.17;;
31450;SDS011;18070;52.474;13.304;2023-11-19T10:35:55;5.55;;;3.20;;
31450;SDS011;18070;52.474;13.304;2023-11-19T10:38:22;11.23;;;3.40;;
31450;SDS011;18070;52.474;13.304;2023-11-19T10:40:49;8.55;;;3.47;;
31450;SDS011;18070;52.474;13.304;2023-11-19T10:43:16;7.60;;;3.25;;
31450;SDS011;18070;52.474;13.304;2023-11-19T10:45:42;14.23;;;4.22;;
31450;SDS011;18070;52.474;13.304;2023-11-19T10:48:08;10.13;;;4.25;;
31450;SDS011;18070;52.474;13.304;2023-11-19T10:50:37;7.93;;;3.25;;
31450;SDS011;18070;52.474;13.304;2023-11-19T10:53:05;8.07;;;3.17;;
31450;SDS011;18070;52.474;13.304;2023-11-19T10:55:35;8.18;;;3.97;;
31450;SDS011;18070;52.474;13.304;2023-11-19T10:58:07;17.55;;;4.28;;
31450;SDS011;18070;52.474;13.304;2023-11-19T11:03:31;17.88;;;4.47;;
31450;SDS011;18070;52.474;13.304;2023-11-19T11:06:04;20.10;;;5.53;;
31450;SDS011;18070;52.474;13.304;2023-11-19T11:08:31;21.60;;;4.43;;
31450;SDS011;18070;52.474;13.304;2023-11-19T11:10:58;15.57;;;4.15;;
31450;SDS011;18070;52.474;13.304;2023-11-19T11:13:25;14.77;;;4.72;;
31450;SDS011;18070;52.474;13.304;2023-11-19T11:15:55;18.38;;;4.43;;
31450;SDS011;18070;52.474;13.304;2023-11-19T11:18:23;13.90;;;4.10;;
31450;SDS011;18070;52.474;13.304;2023-11-19T11:20:50;14.40;;;4.25;;
31450;SDS011;18070;52.474;13.304;2023-11-19T11:28:56;16.15;;;4.80;;
31450;SDS011;18070;52.474;13.304;2023-11-19T11:34:01;15.90;;;4.20;;
31450;SDS011;18070;52.474;13.304;2023-11-19T11:36:49;20.88;;;4.95;;
31450;SDS011;18070;52.474;13.304;2023-11-19T11:39:24;19.85;;;4.78;;
31450;SDS011;18070;52.474;13.304;2023-11-19T11:50:16;15.23;;;4.80;;
31450;SDS011;18070;52.474;13.304;2023-11-19T11:55:36;19.38;;;4.85;;
31450;SDS011;18070;52.474;13.304;2023-11-19T11:58:18;16.20;;;4.10;;
31450;SDS011;18070;52.474;13.304;2023-11-19T12:00:45;27.73;;;5.18;;
31450;SDS011;18070;52.474;13.304;2023-11-19T12:03:12;14.25;;;5.13;;
31450;SDS011;18070;52.474;13.304;2023-11-19T12:05:39;21.17;;;4.80;;
31450;SDS011;18070;52.474;13.304;2023-11-19T12:08:07;14.70;;;4.72;;
31450;SDS011;18070;52.474;13.304;2023-11-19T12:10:49;21.58;;;4.85;;
31450;SDS011;18070;52.474;13.304;2023-11-19T12:13:17;25.80;;;6.10;;
31450;SDS011;18070;52.474;13.304;2023-11-19T12:18:28;24.55;;;4.68;;
31450;SDS011;18070;52.474;13.304;2023-11-19T12:20:55;30.15;;;5.30;;
31450;SDS011;18070;52.474;13.304;2023-11-19T12:23:22;18.88;;;5.05;;
31450;SDS011;18070;52.474;13.304;2023-11-19T12:25:48;25.25;;;5.88;;
31450;SDS011;18070;52.474;13.304;2023-11-19T12:28:14;17.92;;;4.97;;
31450;SDS011;18070;52.474;13.304;2023-11-19T12:30:42;19.48;;;5.72;;
31450;SDS011;18070;52.474;13.304;2023-11-19T12:33:09;21.67;;;5.15;;
31450;SDS011;18070;52.474;13.304;2023-11-19T12:35:53;21.45;;;5.22;;
31450;SDS011;18070;52.474;13.304;2023-11-19T12:38:19;19.13;;;5.30;;
31450;SDS011;18070;52.474;13.304;2023-11-19T12:40:46;30.05;;;6.00;;
31450;SDS011;18070;52.474;13.304;2023-11-19T12:43:21;25.45;;;5.82;;
31450;SDS011;18070;52.474;13.304;2023-11-19T12:45:47;19.70;;;4.68;;
31450;SDS011;18070;52.474;13.304;2023-11-19T12:48:13;23.13;;;5.50;;
31450;SDS011;18070;52.474;13.304;2023-11-19T12:50:54;29.00;;;6.38;;
31450;SDS011;18070;52.474;13.304;2023-11-19T12:53:22;32.92;;;5.72;;
31450;SDS011;18070;52.474;13.304;2023-11-19T12:55:49;28.75;;;5.68;;
31450;SDS011;18070;52.474;13.304;2023-11-19T12:58:35;24.92;;;5.82;;
31450;SDS011;18070;52.474;13.304;2023-11-19T13:03:33;27.60;;;6.28;;
31450;SDS011;18070;52.474;13.304;2023-11-19T13:06:01;26.08;;;5.80;;
31450;SDS011;18070;52.474;13.304;2023-11-19T13:08:29;37.20;;;6.53;;
31450;SDS011;18070;52.474;13.304;2023-11-19T13:11:02;27.25;;;5.80;;
31450;SDS011;18070;52.474;13.304;2023-11-19T13:13:28;27.13;;;6.25;;
31450;SDS011;18070;52.474;13.304;2023-11-19T13:16:01;29.95;;;6.70;;
31450;SDS011;18070;52.474;13.304;2023-11-19T13:18:34;26.55;;;5.85;;
31450;SDS011;18070;52.474;13.304;2023-11-19T13:21:00;27.00;;;5.45;;
31450;SDS011;18070;52.474;13.304;2023-11-19T13:23:25;30.15;;;7.60;;
31450;SDS011;18070;52.474;13.304;2023-11-19T13:25:51;26.05;;;5.72;;
31450;SDS011;18070;52.474;13.304;2023-11-19T13:28:17;37.80;;;7.75;;
31450;SDS011;18070;52.474;13.304;2023-11-19T13:30:42;19.50;;;5.65;;
31450;SDS011;18070;52.474;13.304;2023-11-19T13:33:08;27.50;;;6.65;;
31450;SDS011;18070;52.474;13.304;2023-11-19T13:35:37;29.77;;;6.18;;
31450;SDS011;18070;52.474;13.304;2023-11-19T13:38:05;24.23;;;6.05;;
31450;SDS011;18070;52.474;13.304;2023-11-19T13:40:31;26.88;;;6.45;;
31450;SDS011;18070;52.474;13.304;2023-11-19T13:42:56;36.58;;;7.35;;
31450;SDS011;18070;52.474;13.304;2023-11-19T13:45:22;36.75;;;8.05;;
31450;SDS011;18070;52.474;13.304;2023-11-19T13:47:47;27.20;;;6.38;;
31450;SDS011;18070;52.474;13.304;2023-11-19T13:50:14;35.65;;;7.32;;
31450;SDS011;18070;52.474;13.304;2023-11-19T13:52:42;34.08;;;7.45;;
31450;SDS011;18070;52.474;13.304;2023-11-19T13:55:11;25.20;;;5.60;;
31450;SDS011;18070;52.474;13.304;2023-11-19T13:57:37;31.42;;;6.68;;
31450;SDS011;18070;52.474;13.304;2023-11-19T14:00:04;31.38;;;6.80;;
31450;SDS011;18070;52.474;13.304;2023-11-19T14:02:32;36.72;;;6.55;;
31450;SDS011;18070;52.474;13.304;2023-11-19T14:04:58;29.73;;;6.28;;
31450;SDS011;18070;52.474;13.304;2023-11-19T14:07:24;29.63;;;6.75;;
31450;SDS011;18070;52.474;13.304;2023-11-19T14:09:49;33.20;;;6.75;;
31450;SDS011;18070;52.474;13.304;2023-11-19T14:12:15;34.38;;;8.73;;
31450;SDS011;18070;52.474;13.304;2023-11-19T14:14:41;34.33;;;7.85;;
31450;SDS011;18070;52.474;13.304;2023-11-19T14:17:07;38.92;;;7.57;;
31450;SDS011;18070;52.474;13.304;2023-11-19T14:19:33;32.63;;;6.88;;
31450;SDS011;18070;52.474;13.304;2023-11-19T14:21:58;27.25;;;6.53;;
31450;SDS011;18070;52.474;13.304;2023-11-19T14:24:25;41.67;;;7.53;;
31450;SDS011;18070;52.474;13.304;2023-11-19T14:26:51;30.60;;;5.70;;
31450;SDS011;18070;52.474;13.304;2023-11-19T14:29:17;25.90;;;5.93;;
31450;SDS011;18070;52.474;13.304;2023-11-19T14:31:42;27.83;;;6.72;;
31450;SDS011;18070;52.474;13.304;2023-11-19T14:34:08;31.38;;;6.72;;
31450;SDS011;18070;52.474;13.304;2023-11-19T14:36:33;39.58;;;7.65;;
31450;SDS011;18070;52.474;13.304;2023-11-19T14:38:59;42.42;;;7.18;;
31450;SDS011;18070;52.474;13.304;2023-11-19T14:41:25;38.42;;;6.78;;
31450;SDS011;18070;52.474;13.304;2023-11-19T14:43:51;33.72;;;6.95;;
31450;SDS011;18070;52.474;13.304;2023-11-19T14:46:17;33.55;;;6.53;;
31450;SDS011;18070;52.474;13.304;2023-11-19T14:48:43;28.52;;;6.30;;
31450;SDS011;18070;52.474;13.304;2023-11-19T14:51:08;33.20;;;6.50;;